Time;durP1;ratioP1;P1;durP2;ratioP2;P2;SDS_P1;SDS_P2;PMS_P1;PMS_P2;Temp;Humidity;BMP_temperature;BMP_pressure;BME280_temperature;BME280_humidity;BME280_pressure;Samples;Min_cycle;Max_cycle;Signal;HPM_P1;HPM_P2
2022/06/05 00:08:56;;;;;;;0.20;0.00;;;21.90;99.90;;;;;;26561291;22;20196;-73
2022/06/05 00:19:03;;;;;;;0.20;0.00;;;21.60;99.90;;;;;;26561676;22;20180;-74
2022/06/05 00:29:38;;;;;;;0.20;0.00;;;21.20;99.90;;;;;;26560673;22;20161;-75
2022/06/05 00:39:50;;;;;;;0.20;0.00;;;20.90;99.90;;;;;;26532119;22;20174;-75
2022/06/05 00:49:59;;;;;;;0.20;0.00;;;20.70;99.90;;;;;;26563851;22;20157;-76
2022/06/05 01:00:09;;;;;;;0.20;0.10;;;20.50;99.90;;;;;;26540724;22;20189;-74
2022/06/05 01:10:15;;;;;;;0.20;0.00;;;20.30;99.90;;;;;;26540737;22;20196;-74
2022/06/05 01:20:35;;;;;;;0.20;0.00;;;20.20;99.90;;;;;;26568873;22;20181;-74
2022/06/05 01:30:47;;;;;;;0.20;0.00;;;20.00;99.90;;;;;;26567978;22;20157;-73
2022/06/05 01:40:55;;;;;;;0.20;0.00;;;19.90;99.90;;;;;;26541082;22;20192;-75
2022/06/05 01:51:06;;;;;;;0.20;0.10;;;20.20;99.90;;;;;;26541627;22;20175;-76
2022/06/05 02:01:14;;;;;;;0.20;0.00;;;20.00;99.90;;;;;;26565107;22;20853;-75
2022/06/05 02:11:21;;;;;;;0.20;0.07;;;20.30;99.90;;;;;;26534590;22;20185;-75
2022/06/05 02:21:25;;;;;;;0.20;0.00;;;20.20;99.90;;;;;;26565278;22;20902;-75
2022/06/05 02:31:37;;;;;;;0.20;0.00;;;20.50;99.90;;;;;;26564588;22;20161;-74
2022/06/05 02:41:48;;;;;;;0.20;0.00;;;20.60;99.90;;;;;;26563186;22;20189;-74
2022/06/05 02:51:55;;;;;;;0.20;0.10;;;20.50;99.90;;;;;;26534583;22;20199;-75
2022/06/05 03:12:22;;;;;;;0.20;0.00;;;20.70;99.90;;;;;;26563978;22;20189;-73
2022/06/05 03:22:27;;;;;;;0.20;0.00;;;20.90;99.90;;;;;;26535721;22;20185;-73
2022/06/05 03:32:32;;;;;;;0.20;0.10;;;20.80;99.90;;;;;;26537101;22;20157;-72
2022/06/05 03:42:36;;;;;;;0.20;0.00;;;20.80;99.90;;;;;;26532945;22;20188;-73
2022/06/05 03:52:41;;;;;;;0.20;0.00;;;20.50;99.90;;;;;;26535421;22;20188;-75
2022/06/05 04:02:47;;;;;;;0.20;0.10;;;20.20;99.90;;;;;;26531706;22;20177;-74
2022/06/05 04:12:52;;;;;;;0.20;0.00;;;20.50;99.90;;;;;;26534028;22;20196;-74
2022/06/05 04:22:56;;;;;;;0.20;0.10;;;20.60;99.90;;;;;;26565095;22;20192;-74
2022/06/05 04:33:04;;;;;;;0.20;0.10;;;20.30;99.90;;;;;;26570339;22;20153;-73
2022/06/05 04:43:08;;;;;;;0.20;0.00;;;20.30;99.90;;;;;;26570611;22;20685;-73
2022/06/05 04:53:13;;;;;;;0.20;0.10;;;20.30;99.90;;;;;;26565719;22;20185;-74
2022/06/05 05:03:17;;;;;;;0.20;0.10;;;20.50;99.90;;;;;;26539632;22;20176;-74
2022/06/05 05:13:22;;;;;;;0.20;0.10;;;20.50;99.90;;;;;;26539980;22;20193;-74
2022/06/05 05:23:26;;;;;;;0.20;0.00;;;20.50;99.90;;;;;;26568848;22;20150;-74
2022/06/05 05:33:31;;;;;;;0.20;0.10;;;20.60;99.90;;;;;;26540256;22;20161;-73
2022/06/05 05:43:35;;;;;;;0.20;0.10;;;20.90;99.90;;;;;;26566995;22;20165;-75
2022/06/05 05:53:42;;;;;;;0.20;0.00;;;21.10;99.90;;;;;;26535976;22;20249;-74
2022/06/05 06:03:47;;;;;;;0.20;0.00;;;21.30;99.90;;;;;;26566855;22;20179;-74
2022/06/05 06:13:52;;;;;;;0.20;0.00;;;21.60;99.90;;;;;;26565125;22;20207;-73
2022/06/05 06:23:56;;;;;;;0.20;0.00;;;21.50;99.90;;;;;;26563933;22;20174;-72
2022/06/05 06:34:01;;;;;;;0.20;0.00;;;21.80;99.90;;;;;;26563316;22;20180;-72
2022/06/05 06:44:06;;;;;;;0.20;0.00;;;22.00;99.90;;;;;;26533202;22;20172;-72
2022/06/05 06:54:12;;;;;;;0.20;0.00;;;22.20;99.90;;;;;;26565423;22;20192;-73
2022/06/05 07:04:17;;;;;;;0.20;0.00;;;22.00;99.90;;;;;;26531758;22;20176;-73
2022/06/05 07:14:22;;;;;;;0.20;0.00;;;22.60;99.90;;;;;;26564906;22;20222;-73
2022/06/05 07:24:26;;;;;;;0.20;0.00;;;22.60;99.90;;;;;;26561075;22;20149;-73
2022/06/05 07:34:32;;;;;;;0.20;0.00;;;22.80;99.90;;;;;;26562933;22;20192;-72
2022/06/05 07:44:36;;;;;;;0.20;0.00;;;22.60;99.90;;;;;;26531597;22;20173;-73
2022/06/05 07:54:41;;;;;;;0.20;0.00;;;22.60;99.90;;;;;;26560556;22;20212;-72
2022/06/05 08:04:46;;;;;;;0.20;0.00;;;22.40;99.90;;;;;;26530161;22;20161;-73
2022/06/05 08:14:53;;;;;;;0.20;0.00;;;22.80;99.90;;;;;;26558897;22;20201;-73
2022/06/05 08:24:56;;;;;;;0.20;0.00;;;23.10;99.90;;;;;;26530299;22;20161;-74
2022/06/05 08:35:03;;;;;;;0.20;0.00;;;23.40;99.90;;;;;;26529180;22;20177;-74
2022/06/05 08:45:12;;;;;;;0.20;0.00;;;23.70;99.90;;;;;;26528160;22;20153;-73
2022/06/05 08:55:24;;;;;;;0.20;0.00;;;23.90;99.90;;;;;;26558474;22;20192;-67
2022/06/05 09:05:32;;;;;;;0.20;0.00;;;23.80;99.90;;;;;;26555715;22;20161;-73
2022/06/05 09:15:41;;;;;;;0.20;0.00;;;24.10;99.90;;;;;;26535892;22;20275;-74
2022/06/05 09:25:53;;;;;;;0.20;0.00;;;24.10;99.90;;;;;;26533093;22;20165;-72
2022/06/05 09:36:01;;;;;;;0.20;0.10;;;24.50;99.90;;;;;;26562090;22;20206;-74
2022/06/05 09:46:16;;;;;;;0.20;0.00;;;24.40;99.90;;;;;;26561527;22;20171;-74
2022/06/05 09:56:30;;;;;;;0.20;0.00;;;24.90;99.90;;;;;;26563410;22;20186;-73
2022/06/05 10:06:42;;;;;;;0.20;0.00;;;25.20;99.90;;;;;;26560424;22;20195;-73
2022/06/05 10:16:54;;;;;;;0.20;0.10;;;24.90;99.90;;;;;;26558625;22;20185;-66
2022/06/05 10:27:02;;;;;;;0.20;0.10;;;25.20;99.90;;;;;;26559404;22;20168;-73
2022/06/05 10:37:20;;;;;;;0.20;0.00;;;25.10;99.90;;;;;;26529467;22;20192;-73
2022/06/05 10:47:35;;;;;;;0.20;0.00;;;25.70;99.90;;;;;;26556835;22;20172;-75
2022/06/05 10:57:46;;;;;;;0.20;0.00;;;26.60;99.90;;;;;;26560291;22;20185;-75
2022/06/05 11:07:58;;;;;;;0.20;0.00;;;27.10;99.90;;;;;;26530300;22;20195;-74
2022/06/05 11:18:13;;;;;;;0.20;0.00;;;27.30;99.90;;;;;;26528798;22;20204;-74
2022/06/05 11:28:43;;;;;;;0.20;0.00;;;28.00;99.90;;;;;;26556827;22;20162;-75
2022/06/05 11:39:03;;;;;;;0.20;0.00;;;28.30;99.90;;;;;;26551688;22;20201;-74
2022/06/05 11:49:14;;;;;;;0.20;0.00;;;28.90;99.90;;;;;;26554978;22;20162;-71
2022/06/05 11:59:28;;;;;;;0.20;0.00;;;28.90;99.90;;;;;;26555400;22;20252;-73
2022/06/05 12:09:35;;;;;;;0.20;0.00;;;29.80;99.90;;;;;;26528402;22;20208;-73
2022/06/05 12:19:52;;;;;;;0.20;0.00;;;30.00;99.90;;;;;;26557903;22;20192;-73
2022/06/05 12:30:03;;;;;;;0.20;0.00;;;30.10;99.90;;;;;;26528481;22;20275;-73
2022/06/05 12:40:19;;;;;;;0.20;0.00;;;30.30;99.90;;;;;;26555826;22;20241;-74
2022/06/05 12:50:40;;;;;;;0.20;0.00;;;31.10;99.90;;;;;;26563975;22;20157;-73
2022/06/05 13:00:52;;;;;;;0.20;0.00;;;31.20;99.90;;;;;;26536826;22;20193;-75
2022/06/05 13:11:04;;;;;;;0.20;0.00;;;32.00;99.90;;;;;;26564274;22;20203;-73
2022/06/05 13:21:19;;;;;;;0.20;0.00;;;32.30;99.90;;;;;;26540707;22;21073;-73
2022/06/05 13:31:29;;;;;;;0.20;0.00;;;31.60;99.90;;;;;;26566734;22;20251;-73
2022/06/05 13:41:42;;;;;;;0.20;0.00;;;32.20;99.90;;;;;;26532441;22;20189;-72
2022/06/05 13:51:56;;;;;;;0.20;0.00;;;31.90;99.90;;;;;;26559095;22;20181;-72
2022/06/05 14:02:25;;;;;;;0.20;0.00;;;32.30;99.90;;;;;;26561135;22;20181;-73
2022/06/05 14:12:31;;;;;;;0.20;0.00;;;32.30;99.90;;;;;;26557513;22;20185;-74
2022/06/05 14:22:43;;;;;;;0.20;0.00;;;32.10;99.90;;;;;;26534029;22;20185;-73
2022/06/05 14:32:48;;;;;;;0.20;0.00;;;32.70;99.90;;;;;;26533976;22;20161;-73
2022/06/05 14:42:58;;;;;;;0.20;0.00;;;33.50;99.90;;;;;;26552142;22;20196;-71
2022/06/05 14:53:11;;;;;;;0.20;0.00;;;33.30;99.90;;;;;;26548543;22;20192;-72
2022/06/05 15:03:23;;;;;;;0.20;0.00;;;32.90;99.90;;;;;;26521065;22;20177;-73
2022/06/05 15:13:32;;;;;;;0.20;0.00;;;33.20;99.90;;;;;;26516218;22;20184;-73
2022/06/05 15:23:44;;;;;;;0.20;0.00;;;32.50;99.90;;;;;;26546812;22;20177;-75
2022/06/05 15:34:05;;;;;;;0.20;0.00;;;32.60;99.90;;;;;;26551119;22;20159;-76
2022/06/05 15:44:28;;;;;;;0.20;0.00;;;32.20;99.90;;;;;;26516099;22;20182;-72
2022/06/05 15:55:03;;;;;;;0.20;0.00;;;32.30;99.90;;;;;;26549110;22;20177;-75
2022/06/05 16:05:19;;;;;;;0.20;0.00;;;32.00;99.90;;;;;;26555132;22;20200;-73
2022/06/05 16:15:32;;;;;;;0.20;0.00;;;31.70;99.90;;;;;;26404869;22;20200;-74
2022/06/05 16:25:45;;;;;;;0.20;0.00;;;31.50;99.90;;;;;;26423407;22;20184;-73
2022/06/05 16:46:31;;;;;;;0.20;0.00;;;30.90;99.90;;;;;;26385018;22;20196;-71
2022/06/05 16:57:13;;;;;;;0.20;0.03;;;30.30;99.90;;;;;;26380115;22;20213;-72
2022/06/05 17:07:29;;;;;;;0.20;0.00;;;31.30;99.90;;;;;;26406322;22;20195;-73
2022/06/05 17:17:36;;;;;;;0.20;0.05;;;31.00;99.90;;;;;;26418788;22;20182;-73
2022/06/05 17:27:48;;;;;;;0.20;0.00;;;31.90;99.90;;;;;;26426408;22;20192;-74
2022/06/05 17:38:22;;;;;;;0.20;0.10;;;30.60;99.90;;;;;;26406432;22;20181;-74
2022/06/05 17:48:44;;;;;;;0.20;0.10;;;30.10;99.90;;;;;;26429852;22;20968;-73
2022/06/05 17:58:49;;;;;;;0.20;0.00;;;29.70;99.90;;;;;;26299117;22;20175;-72
2022/06/05 18:09:12;;;;;;;0.20;0.00;;;28.90;99.90;;;;;;26298652;22;20211;-74
2022/06/05 18:19:21;;;;;;;0.20;0.00;;;29.30;99.90;;;;;;26298231;22;20186;-74
2022/06/05 18:29:54;;;;;;;0.20;0.00;;;28.60;99.90;;;;;;26296487;22;20178;-74
2022/06/05 18:40:07;;;;;;;0.20;0.00;;;27.90;99.90;;;;;;26296582;22;20182;-72
2022/06/05 18:50:20;;;;;;;0.20;0.00;;;27.30;99.90;;;;;;26293780;22;20194;-73
2022/06/05 19:00:29;;;;;;;0.20;0.10;;;26.50;99.90;;;;;;26267855;22;20178;-73
2022/06/05 19:10:36;;;;;;;0.20;0.10;;;25.70;99.90;;;;;;26293909;22;21007;-73
2022/06/05 19:20:42;;;;;;;0.20;0.00;;;25.00;99.90;;;;;;26294421;22;20190;-73
2022/06/05 19:30:52;;;;;;;0.20;0.00;;;24.70;99.90;;;;;;26290442;22;20151;-73
2022/06/05 19:41:15;;;;;;;0.20;0.00;;;24.70;99.90;;;;;;26292020;22;20178;-74
2022/06/05 19:51:29;;;;;;;0.20;0.00;;;24.50;99.90;;;;;;26295116;22;20275;-73
2022/06/05 20:01:55;;;;;;;0.20;0.00;;;24.20;99.90;;;;;;26293808;22;20190;-72
2022/06/05 20:12:28;;;;;;;0.20;0.10;;;24.30;99.90;;;;;;26268938;22;20163;-73
2022/06/05 20:22:39;;;;;;;0.20;0.00;;;24.10;99.90;;;;;;26272241;22;20206;-73
2022/06/05 20:32:47;;;;;;;0.20;0.00;;;24.00;99.90;;;;;;26289749;22;20162;-74
2022/06/05 20:42:55;;;;;;;0.20;0.00;;;23.90;99.90;;;;;;26264215;22;20207;-74
2022/06/05 20:53:06;;;;;;;0.20;0.00;;;23.70;99.90;;;;;;26292391;22;20771;-74
2022/06/05 21:24:08;;;;;;;0.20;0.00;;;23.30;99.90;;;;;;26297856;22;20194;-75
2022/06/05 21:34:15;;;;;;;0.20;0.00;;;23.30;99.90;;;;;;26289592;22;20179;-75
2022/06/05 21:44:20;;;;;;;0.20;0.00;;;23.30;99.90;;;;;;26271282;22;20183;-77
2022/06/05 21:54:40;;;;;;;0.20;0.00;;;23.30;99.90;;;;;;26270056;22;20197;-74
2022/06/05 22:04:45;;;;;;;0.20;0.00;;;22.90;99.90;;;;;;26295907;22;20221;-76
2022/06/05 22:14:51;;;;;;;0.20;0.00;;;22.60;99.90;;;;;;26293387;22;20170;-74
2022/06/05 22:24:54;;;;;;;0.20;0.00;;;22.80;99.90;;;;;;26296513;22;20187;-74
2022/06/05 22:35:00;;;;;;;0.20;0.00;;;23.10;99.90;;;;;;26291887;22;20249;-77
2022/06/05 22:45:04;;;;;;;0.20;0.00;;;23.10;99.90;;;;;;26267312;22;20198;-74
2022/06/05 22:55:12;;;;;;;0.20;0.00;;;23.10;99.90;;;;;;26265525;22;20205;-75
2022/06/05 23:05:17;;;;;;;0.20;0.00;;;23.00;99.90;;;;;;26293314;22;20175;-75
2022/06/05 23:15:22;;;;;;;0.20;0.00;;;23.10;99.90;;;;;;26272928;22;20166;-73
2022/06/05 23:25:26;;;;;;;0.20;0.00;;;23.00;99.90;;;;;;26297633;22;20183;-74
2022/06/05 23:35:31;;;;;;;0.20;0.00;;;22.90;99.90;;;;;;26300483;22;20158;-80
2022/06/05 23:45:39;;;;;;;0.20;0.00;;;22.70;99.90;;;;;;26299957;22;20193;-74
2022/06/05 23:55:44;;;;;;;0.20;0.00;;;22.70;99.90;;;;;;26273143;22;20853;-73
